Time;durP1;ratioP1;P1;durP2;ratioP2;P2;SDS_P1;SDS_P2;PMS_P1;PMS_P2;Temp;Humidity;BMP_temperature;BMP_pressure;BME280_temperature;BME280_humidity;BME280_pressure;Samples;Min_cycle;Max_cycle;Signal;HPM_P1;HPM_P2
2023/11/13 00:01:53;;;;;;;17.90;9.50;;;;;;;14.69;49.93;99102.05;108154;1254;72941;-67
2023/11/13 00:04:20;;;;;;;19.90;11.10;;;;;;;14.47;50.39;99098.55;108161;1256;68586;-67
2023/11/13 00:06:48;;;;;;;17.20;10.50;;;;;;;14.58;50.28;99096.95;108114;1254;71065;-67
2023/11/13 00:09:15;;;;;;;20.30;11.20;;;;;;;14.63;49.84;99113.06;108111;1254;60679;-66
2023/11/13 00:11:43;;;;;;;17.90;10.50;;;;;;;14.75;49.55;99118.38;108114;1253;60456;-67
2023/11/13 00:14:11;;;;;;;19.40;10.30;;;;;;;14.74;49.53;99123.05;108130;1253;72551;-66
2023/11/13 00:16:38;;;;;;;18.30;10.60;;;;;;;14.96;49.08;99124.63;107972;1254;69348;-68
2023/11/13 00:19:06;;;;;;;19.00;9.30;;;;;;;15.10;48.79;99122.92;107899;1254;71937;-67
2023/11/13 00:21:34;;;;;;;20.90;11.30;;;;;;;14.91;48.92;99128.90;107935;1256;60536;-67
2023/11/13 00:24:02;;;;;;;18.60;10.00;;;;;;;14.89;48.91;99130.80;107949;1254;60310;-67
2023/11/13 00:26:30;;;;;;;17.30;10.20;;;;;;;14.87;48.73;99133.23;107946;1254;73794;-66
2023/11/13 00:28:58;;;;;;;20.50;10.20;;;;;;;14.98;48.36;99130.51;108012;1254;69758;-67
2023/11/13 00:31:25;;;;;;;19.00;9.50;;;;;;;14.77;48.56;99143.66;107836;1254;72926;-67
2023/11/13 00:33:53;;;;;;;16.20;9.80;;;;;;;14.93;48.26;99143.46;107951;1254;60831;-67
2023/11/13 00:36:20;;;;;;;18.90;10.10;;;;;;;15.03;48.16;99145.56;108010;1254;60293;-67
2023/11/13 00:38:48;;;;;;;14.30;8.70;;;;;;;14.84;48.35;99144.61;107791;1254;72778;-67
2023/11/13 00:41:16;;;;;;;14.30;8.70;;;;;;;14.80;48.53;99145.72;107969;1254;70163;-67
2023/11/13 00:43:44;;;;;;;14.90;9.00;;;;;;;14.88;48.13;99147.35;107992;1260;71728;-67
2023/11/13 00:46:11;;;;;;;17.70;9.90;;;;;;;14.70;48.32;99151.08;107934;1254;60397;-67
2023/11/13 00:48:40;;;;;;;19.10;9.50;;;;;;;14.65;48.56;99157.59;108045;1254;60029;-67
2023/11/13 00:51:08;;;;;;;13.60;7.80;;;;;;;14.68;48.23;99155.23;107881;1254;73960;-67
2023/11/13 00:53:36;;;;;;;15.20;9.10;;;;;;;14.87;47.83;99162.24;107891;1258;68717;-66
2023/11/13 00:56:05;;;;;;;16.50;9.00;;;;;;;14.97;47.70;99163.14;107897;1254;71580;-67
2023/11/13 00:58:34;;;;;;;19.30;9.70;;;;;;;14.88;47.55;99169.26;107942;1254;60968;-67
2023/11/13 01:01:05;;;;;;;17.00;8.40;;;;;;;15.04;47.28;99169.72;108017;1256;62351;-67
2023/11/13 01:03:34;;;;;;;15.80;8.00;;;;;;;15.26;46.63;99171.98;108154;1252;72671;-67
2023/11/13 01:06:02;;;;;;;16.40;8.50;;;;;;;15.16;46.67;99173.80;108147;1253;69497;-67
2023/11/13 01:08:30;;;;;;;17.90;8.40;;;;;;;15.07;46.79;99175.13;108151;1253;71366;-66
2023/11/13 01:10:58;;;;;;;14.80;8.40;;;;;;;14.98;46.83;99178.26;108280;1253;60318;-67
2023/11/13 01:13:28;;;;;;;15.00;8.50;;;;;;;14.88;47.05;99183.03;108309;1253;60920;-65
2023/11/13 01:15:56;;;;;;;15.80;8.10;;;;;;;14.59;47.29;99187.64;108275;1254;73830;-66
2023/11/13 01:18:24;;;;;;;20.70;9.70;;;;;;;14.53;47.63;99192.50;108082;1254;70320;-67
2023/11/13 01:20:51;;;;;;;16.20;8.80;;;;;;;14.78;47.14;99197.65;108257;1253;72667;-66
2023/11/13 01:23:19;;;;;;;17.30;7.70;;;;;;;14.77;46.93;99198.12;108244;1253;60433;-66
2023/11/13 01:25:47;;;;;;;16.30;9.00;;;;;;;14.74;47.07;99201.83;108238;1254;60421;-66
2023/11/13 01:28:16;;;;;;;13.00;7.80;;;;;;;14.99;46.69;99200.80;108219;1254;72599;-66
2023/11/13 01:30:44;;;;;;;16.40;7.70;;;;;;;15.02;46.55;99199.77;108114;1254;69971;-66
2023/11/13 01:33:11;;;;;;;12.60;7.20;;;;;;;14.92;46.82;99202.91;108143;1253;73550;-66
2023/11/13 01:35:39;;;;;;;11.80;8.00;;;;;;;14.73;47.19;99214.45;108256;1253;60270;-67
2023/11/13 01:38:07;;;;;;;16.20;8.00;;;;;;;14.86;46.87;99213.05;108260;1252;60085;-68
2023/11/13 01:40:38;;;;;;;12.80;8.10;;;;;;;14.98;46.80;99220.14;108277;1252;73824;-66
2023/11/13 01:43:06;;;;;;;13.40;7.80;;;;;;;15.08;46.41;99218.23;108194;1256;68715;-67
2023/11/13 01:45:33;;;;;;;13.50;7.90;;;;;;;14.99;46.54;99227.00;108109;1253;72463;-67
2023/11/13 01:48:01;;;;;;;19.00;9.00;;;;;;;15.08;46.41;99225.27;108123;1254;61344;-66
2023/11/13 01:50:28;;;;;;;13.90;7.70;;;;;;;14.89;46.42;99227.30;108249;1252;60935;-69
2023/11/13 01:52:56;;;;;;;17.00;8.50;;;;;;;15.09;46.33;99228.23;108007;1252;73796;-67
2023/11/13 01:55:23;;;;;;;14.10;8.00;;;;;;;15.11;46.17;99221.55;108133;1253;68909;-67
2023/11/13 01:57:51;;;;;;;16.20;9.40;;;;;;;15.24;45.74;99223.93;108146;1254;71473;-67
2023/11/13 02:00:18;;;;;;;13.60;8.40;;;;;;;15.40;45.62;99231.00;108112;1253;60271;-68
2023/11/13 02:02:46;;;;;;;14.80;8.40;;;;;;;15.40;45.42;99233.80;107898;1253;60521;-66
2023/11/13 02:05:15;;;;;;;16.20;9.20;;;;;;;15.17;45.93;99239.33;108078;1253;72628;-66
2023/11/13 02:07:43;;;;;;;17.10;8.90;;;;;;;14.98;46.24;99245.08;107904;1259;70011;-67
2023/11/13 02:10:10;;;;;;;15.10;8.70;;;;;;;15.02;46.18;99251.70;107927;1253;73196;-67
2023/11/13 02:12:38;;;;;;;16.60;8.50;;;;;;;15.07;46.46;99255.05;107864;1256;60854;-66
2023/11/13 02:15:07;;;;;;;17.40;8.90;;;;;;;14.84;46.54;99257.52;107931;1253;60293;-67
2023/11/13 02:17:36;;;;;;;14.70;8.50;;;;;;;14.73;46.77;99257.73;107887;1253;73839;-67
2023/11/13 02:20:04;;;;;;;18.00;9.80;;;;;;;14.72;46.99;99255.14;107884;1253;69221;-67
2023/11/13 02:22:32;;;;;;;16.70;9.40;;;;;;;14.63;46.96;99256.46;107968;1253;73247;-66
2023/11/13 02:24:59;;;;;;;17.60;9.50;;;;;;;14.59;47.08;99259.02;107892;1256;60862;-67
2023/11/13 02:27:27;;;;;;;16.10;8.90;;;;;;;14.46;47.55;99260.21;107871;1253;60219;-67
2023/11/13 02:29:54;;;;;;;18.30;9.60;;;;;;;14.73;47.12;99266.90;107887;1253;72987;-66
2023/11/13 02:32:23;;;;;;;15.30;9.80;;;;;;;14.66;47.20;99268.27;107876;1253;68898;-67
2023/11/13 02:34:51;;;;;;;15.00;9.00;;;;;;;14.92;46.67;99270.25;108050;1253;72693;-68
2023/11/13 02:37:18;;;;;;;20.40;10.50;;;;;;;15.04;46.63;99275.06;108011;1253;60947;-66
2023/11/13 02:39:47;;;;;;;18.60;10.60;;;;;;;15.04;46.38;99277.87;107949;1253;60355;-67
2023/11/13 02:42:14;;;;;;;18.50;10.00;;;;;;;14.73;46.82;99279.45;108070;1252;72571;-67
2023/11/13 02:44:42;;;;;;;19.50;12.10;;;;;;;14.75;46.94;99281.10;107995;1253;70573;-67
2023/11/13 02:47:10;;;;;;;20.20;10.70;;;;;;;14.95;46.50;99286.64;108087;1253;72705;-68
2023/11/13 02:49:37;;;;;;;19.30;11.50;;;;;;;14.86;46.82;99288.50;108002;1253;60412;-67
2023/11/13 02:54:42;;;;;;;20.80;11.10;;;;;;;11.98;54.12;99293.48;104639;1293;615326;-66
2023/11/13 02:57:08;;;;;;;24.50;12.30;;;;;;;13.68;49.81;99292.11;107225;1267;59100;-68
2023/11/13 02:59:35;;;;;;;17.40;11.10;;;;;;;14.16;48.83;99291.71;107246;1266;59158;-67
2023/11/13 03:02:02;;;;;;;22.10;11.90;;;;;;;14.04;48.86;99297.59;107167;1266;59245;-67
2023/11/13 03:04:30;;;;;;;22.20;12.10;;;;;;;14.04;49.09;99298.10;107261;1267;70346;-67
2023/11/13 03:06:56;;;;;;;23.70;12.40;;;;;;;13.99;48.67;99295.61;107144;1271;152701;-67
2023/11/13 03:09:23;;;;;;;26.70;14.10;;;;;;;14.04;48.75;99302.17;107359;1264;60825;-67
2023/11/13 03:11:49;;;;;;;26.80;13.80;;;;;;;14.12;48.67;99308.73;107263;1264;59212;-67
2023/11/13 03:14:16;;;;;;;22.30;12.20;;;;;;;14.32;48.35;99304.60;107322;1267;59103;-67
2023/11/13 03:16:43;;;;;;;27.30;14.40;;;;;;;14.21;48.49;99302.69;107321;1267;70150;-66
2023/11/13 03:19:10;;;;;;;27.80;14.20;;;;;;;14.03;48.70;99309.27;107273;1266;72793;-67
2023/11/13 03:21:36;;;;;;;35.60;14.90;;;;;;;13.88;49.15;99310.40;107227;1267;59729;-67
2023/11/13 03:24:03;;;;;;;26.30;13.50;;;;;;;13.96;48.92;99313.44;107234;1269;59525;-67
2023/11/13 03:26:30;;;;;;;29.00;13.30;;;;;;;13.93;48.95;99315.20;107251;1266;73185;-67
2023/11/13 03:28:57;;;;;;;28.80;14.70;;;;;;;13.92;49.07;99322.89;107156;1267;70621;-67
2023/11/13 03:31:24;;;;;;;27.70;14.50;;;;;;;14.07;48.85;99329.15;107237;1267;71904;-67
2023/11/13 03:33:52;;;;;;;28.00;14.80;;;;;;;14.12;48.70;99333.98;107273;1267;61167;-66
2023/11/13 03:36:18;;;;;;;28.00;14.90;;;;;;;14.15;48.74;99334.63;107294;1266;59531;-67
2023/11/13 03:38:45;;;;;;;26.40;15.30;;;;;;;14.13;48.65;99340.80;107276;1267;73086;-68
2023/11/13 03:41:12;;;;;;;32.30;16.30;;;;;;;14.23;48.55;99338.74;107280;1266;70076;-68
2023/11/13 03:43:38;;;;;;;29.80;14.50;;;;;;;14.15;48.66;99337.47;107184;1269;72780;-67
2023/11/13 03:46:05;;;;;;;29.80;14.40;;;;;;;13.94;48.99;99341.61;107215;1267;59640;-68
2023/11/13 03:48:31;;;;;;;34.90;16.80;;;;;;;13.59;49.91;99345.08;107291;1266;61015;-67
2023/11/13 03:50:58;;;;;;;27.90;15.20;;;;;;;13.44;50.20;99348.99;107251;1267;73127;-67
2023/11/13 03:53:25;;;;;;;30.50;16.10;;;;;;;13.58;50.12;99348.13;107280;1266;70282;-67
2023/11/13 03:55:51;;;;;;;29.80;15.40;;;;;;;13.86;49.60;99350.23;107232;1269;59647;-66
2023/11/13 03:58:18;;;;;;;26.30;15.60;;;;;;;13.33;50.41;99354.45;107495;1261;61230;-67
2023/11/13 04:00:44;;;;;;;32.40;16.50;;;;;;;13.38;50.62;99359.77;107596;1263;59491;-66
2023/11/13 04:03:12;;;;;;;29.10;15.60;;;;;;;13.28;50.81;99361.20;107547;1261;73029;-66
2023/11/13 04:05:38;;;;;;;30.00;16.10;;;;;;;13.79;50.02;99360.08;107631;1261;69224;-66
2023/11/13 04:08:05;;;;;;;35.00;17.10;;;;;;;13.98;49.57;99362.20;107484;1260;59752;-67
2023/11/13 04:10:31;;;;;;;35.50;17.90;;;;;;;13.97;49.21;99366.48;107596;1261;60097;-67
2023/11/13 04:12:59;;;;;;;29.20;16.50;;;;;;;13.96;49.31;99367.41;107594;1263;59220;-67
2023/11/13 04:15:25;;;;;;;30.10;15.40;;;;;;;13.98;49.36;99371.37;107620;1261;73104;-66
2023/11/13 04:17:52;;;;;;;33.60;17.30;;;;;;;14.14;49.04;99374.97;107575;1261;59706;-67
2023/11/13 04:20:21;;;;;;;34.00;17.10;;;;;;;14.07;49.11;99377.36;107733;1257;72766;-67
2023/11/13 04:22:54;;;;;;;28.30;15.30;;;;;;;14.01;49.04;99378.45;107715;1257;60899;-66
2023/11/13 04:25:21;;;;;;;35.40;16.80;;;;;;;14.12;49.15;99381.81;107728;1261;60170;-67
2023/11/13 04:27:48;;;;;;;35.10;17.50;;;;;;;14.13;48.84;99381.91;107849;1258;72797;-66
2023/11/13 04:30:15;;;;;;;32.00;17.00;;;;;;;14.06;48.73;99384.09;107812;1257;59199;-66
2023/11/13 04:32:42;;;;;;;35.70;18.30;;;;;;;14.19;48.70;99388.23;107762;1258;72400;-66
2023/11/13 04:35:09;;;;;;;33.50;16.90;;;;;;;14.04;48.86;99390.95;107858;1260;61077;-65
2023/11/13 04:37:36;;;;;;;33.00;17.50;;;;;;;13.98;49.17;99391.65;107815;1261;58972;-66
2023/11/13 04:40:04;;;;;;;28.80;15.70;;;;;;;14.18;48.96;99395.33;107843;1261;72916;-67
2023/11/13 04:42:32;;;;;;;34.40;17.00;;;;;;;14.07;48.77;99398.88;107796;1257;70019;-67
2023/11/13 04:44:59;;;;;;;33.90;17.60;;;;;;;14.22;48.78;99402.90;107802;1261;72734;-66
2023/11/13 04:47:26;;;;;;;30.00;16.10;;;;;;;14.13;48.82;99405.71;107594;1258;60919;-66
2023/11/13 04:49:52;;;;;;;33.50;16.30;;;;;;;14.24;48.47;99407.53;107803;1257;60421;-66
2023/11/13 04:52:19;;;;;;;33.10;17.00;;;;;;;14.29;48.53;99414.09;107831;1258;59154;-66
2023/11/13 04:54:46;;;;;;;28.80;16.10;;;;;;;14.33;48.31;99416.13;107774;1261;69179;-67
2023/11/13 04:57:12;;;;;;;33.90;16.90;;;;;;;14.26;48.72;99425.18;107759;1258;59582;-67
2023/11/13 04:59:39;;;;;;;30.80;16.00;;;;;;;14.16;48.83;99430.08;107593;1258;59819;-67
2023/11/13 05:02:07;;;;;;;29.60;16.60;;;;;;;14.09;48.90;99434.23;107812;1257;60175;-68
2023/11/13 05:04:34;;;;;;;32.40;16.80;;;;;;;14.19;48.72;99439.07;107626;1257;71841;-67
2023/11/13 05:07:02;;;;;;;32.50;16.40;;;;;;;14.30;48.36;99441.94;107564;1262;71536;-67
2023/11/13 05:09:29;;;;;;;32.70;17.80;;;;;;;14.59;48.07;99446.64;107793;1262;72680;-66
2023/11/13 05:11:56;;;;;;;31.80;15.50;;;;;;;14.56;47.97;99450.36;107771;1257;61653;-66
2023/11/13 05:14:22;;;;;;;30.80;16.60;;;;;;;14.55;47.76;99455.03;107880;1261;60030;-66
2023/11/13 05:16:49;;;;;;;31.40;16.50;;;;;;;14.62;47.68;99455.27;107810;1257;73038;-68
2023/11/13 05:19:18;;;;;;;29.40;15.20;;;;;;;14.49;47.70;99455.89;107711;1263;70847;-68
2023/11/13 05:21:45;;;;;;;34.90;17.70;;;;;;;14.46;47.77;99460.70;107868;1257;72498;-67
2023/11/13 05:24:11;;;;;;;30.80;17.50;;;;;;;14.56;47.70;99458.67;107572;1257;59788;-67
2023/11/13 05:26:38;;;;;;;21.50;13.70;;;;;;;14.48;47.83;99457.88;107810;1261;59632;-66
2023/11/13 05:29:05;;;;;;;31.10;16.60;;;;;;;14.49;47.99;99464.01;107788;1257;73750;-67
2023/11/13 05:31:32;;;;;;;28.70;14.80;;;;;;;14.73;47.50;99466.73;107821;1261;59639;-67
2023/11/13 05:33:59;;;;;;;28.40;15.50;;;;;;;14.72;47.40;99473.91;107673;1257;73276;-66
2023/11/13 05:36:25;;;;;;;29.10;16.50;;;;;;;14.70;47.50;99475.79;107804;1257;60891;-66
2023/11/13 05:38:52;;;;;;;28.30;14.90;;;;;;;14.53;47.69;99480.58;107815;1258;60145;-67
2023/11/13 05:41:19;;;;;;;28.90;16.10;;;;;;;14.52;47.74;99487.52;107618;1260;71728;-66
2023/11/13 05:43:47;;;;;;;28.20;14.80;;;;;;;14.35;48.14;99490.17;107761;1257;70515;-66
2023/11/13 05:46:17;;;;;;;27.40;15.10;;;;;;;14.22;48.23;99491.66;107794;1258;72740;-68
2023/11/13 05:48:43;;;;;;;27.50;15.00;;;;;;;14.41;48.08;99495.20;107991;1259;60947;-67
2023/11/13 05:51:13;;;;;;;27.40;13.90;;;;;;;14.40;47.89;99500.22;108064;1254;60178;-67
2023/11/13 05:53:40;;;;;;;23.50;13.90;;;;;;;14.38;47.92;99504.63;108119;1254;73025;-66
2023/11/13 05:56:07;;;;;;;28.40;14.40;;;;;;;14.54;47.70;99509.65;108000;1254;59535;-65
2023/11/13 05:58:34;;;;;;;25.30;13.90;;;;;;;14.68;47.52;99509.11;108100;1254;72514;-64
2023/11/13 06:01:01;;;;;;;25.00;14.30;;;;;;;14.67;47.47;99514.48;108019;1254;59743;-65
2023/11/13 06:03:28;;;;;;;29.30;15.00;;;;;;;14.51;47.51;99515.31;108048;1254;60295;-66
2023/11/13 06:05:54;;;;;;;25.40;14.00;;;;;;;14.60;47.25;99516.00;108026;1254;73538;-68
2023/11/13 06:08:21;;;;;;;30.10;16.10;;;;;;;14.74;47.09;99521.13;108029;1254;70198;-67
2023/11/13 06:10:47;;;;;;;27.70;15.00;;;;;;;14.88;46.78;99528.19;108015;1254;72490;-67
2023/11/13 06:13:17;;;;;;;28.20;15.30;;;;;;;15.00;46.65;99527.27;108038;1254;61152;-67
2023/11/13 06:15:43;;;;;;;25.90;14.00;;;;;;;15.00;46.51;99525.09;108012;1254;60164;-67
2023/11/13 06:18:10;;;;;;;24.60;14.00;;;;;;;14.91;46.48;99531.69;108053;1254;72763;-67
2023/11/13 06:20:37;;;;;;;24.00;14.70;;;;;;;15.17;46.25;99533.39;108117;1254;70172;-67
2023/11/13 06:23:03;;;;;;;21.10;13.80;;;;;;;15.14;46.15;99537.10;108037;1260;72729;-65
2023/11/13 06:25:30;;;;;;;24.90;15.00;;;;;;;15.17;46.23;99534.27;108048;1254;60879;-65
2023/11/13 06:27:57;;;;;;;30.20;16.00;;;;;;;14.98;46.51;99543.77;108040;1254;60331;-68
2023/11/13 06:30:24;;;;;;;23.10;13.80;;;;;;;14.98;46.59;99539.02;107857;1254;72901;-67
2023/11/13 06:32:50;;;;;;;26.30;15.10;;;;;;;14.83;46.81;99544.91;107988;1254;70409;-66
2023/11/13 06:35:17;;;;;;;29.80;14.60;;;;;;;14.76;46.77;99547.33;108050;1254;72659;-66
2023/11/13 06:37:44;;;;;;;22.40;13.80;;;;;;;14.88;46.57;99548.52;108018;1254;59615;-67
2023/11/13 06:40:11;;;;;;;28.60;15.70;;;;;;;14.54;47.13;99549.58;107969;1254;60172;-68
2023/11/13 06:42:39;;;;;;;25.30;14.00;;;;;;;14.55;46.91;99547.91;107918;1254;73139;-68
2023/11/13 06:45:11;;;;;;;24.30;14.10;;;;;;;14.83;46.34;99549.30;108007;1255;70748;-66
2023/11/13 06:47:38;;;;;;;27.60;14.30;;;;;;;14.90;45.96;99549.23;107988;1254;73051;-66
2023/11/13 06:50:06;;;;;;;26.00;13.80;;;;;;;14.91;45.51;99557.47;107859;1258;59970;-68
2023/11/13 06:52:32;;;;;;;22.50;13.30;;;;;;;14.97;45.65;99555.18;108031;1254;59376;-68
2023/11/13 06:54:59;;;;;;;22.00;12.60;;;;;;;14.38;46.20;99558.98;107994;1254;72836;-67
2023/11/13 06:57:26;;;;;;;24.60;14.20;;;;;;;14.33;46.85;99564.45;108011;1254;70516;-67
2023/11/13 06:59:53;;;;;;;24.10;13.20;;;;;;;14.69;46.25;99566.64;108013;1254;72628;-68
2023/11/13 07:02:21;;;;;;;23.40;13.90;;;;;;;14.82;45.39;99569.54;107972;1254;62424;-66
2023/11/13 07:04:48;;;;;;;25.20;13.30;;;;;;;14.98;45.37;99569.45;107994;1254;60520;-64
2023/11/13 07:07:15;;;;;;;23.70;12.40;;;;;;;14.82;45.30;99574.35;108029;1254;72446;-67
2023/11/13 07:09:41;;;;;;;23.40;13.30;;;;;;;14.78;45.48;99581.30;108104;1254;69036;-67
2023/11/13 07:12:08;;;;;;;24.20;12.80;;;;;;;14.87;45.45;99582.15;107979;1254;72601;-66
2023/11/13 07:14:35;;;;;;;19.80;11.70;;;;;;;14.77;45.23;99586.45;108053;1254;60828;-65
2023/11/13 07:17:01;;;;;;;21.70;13.30;;;;;;;15.06;44.71;99590.10;108034;1254;60352;-66
2023/11/13 07:19:33;;;;;;;21.60;12.30;;;;;;;15.27;44.33;99584.15;107987;1254;73863;-66
2023/11/13 07:22:01;;;;;;;20.90;12.40;;;;;;;15.15;44.25;99590.41;107850;1257;67957;-68
2023/11/13 07:24:28;;;;;;;20.60;11.90;;;;;;;15.34;44.08;99586.15;107849;1254;72681;-68
2023/11/13 07:26:55;;;;;;;18.90;12.20;;;;;;;15.52;43.78;99582.67;107980;1254;61049;-67
2023/11/13 07:29:22;;;;;;;20.10;11.60;;;;;;;15.58;43.70;99586.57;107856;1254;60421;-67
2023/11/13 07:31:48;;;;;;;22.70;12.60;;;;;;;15.53;43.74;99590.05;108092;1254;73836;-68
2023/11/13 07:34:15;;;;;;;20.30;11.70;;;;;;;15.45;43.52;99586.39;108028;1260;70041;-67
2023/11/13 07:36:42;;;;;;;21.80;12.30;;;;;;;15.42;43.61;99589.90;108023;1254;72239;-69
2023/11/13 07:39:09;;;;;;;22.60;11.90;;;;;;;15.24;43.40;99585.92;108062;1254;61180;-68
2023/11/13 07:41:37;;;;;;;19.20;11.40;;;;;;;15.39;43.33;99585.69;108043;1254;59106;-67
2023/11/13 07:44:05;;;;;;;25.70;12.60;;;;;;;15.45;43.67;99588.32;108063;1254;73663;-68
2023/11/13 07:46:31;;;;;;;20.20;11.50;;;;;;;15.70;43.01;99582.78;108067;1254;69986;-68
2023/11/13 07:48:59;;;;;;;18.00;10.80;;;;;;;15.80;42.87;99586.70;108096;1254;72703;-67
2023/11/13 07:51:26;;;;;;;20.00;11.90;;;;;;;15.90;42.26;99587.61;107817;1254;61085;-67
2023/11/13 07:53:53;;;;;;;18.30;10.30;;;;;;;16.05;41.93;99590.66;107782;1254;60295;-68
2023/11/13 07:56:21;;;;;;;18.00;10.80;;;;;;;16.02;41.94;99594.59;107986;1254;72724;-67
2023/11/13 07:58:48;;;;;;;22.10;11.30;;;;;;;15.89;41.64;99599.23;107853;1254;70123;-67
2023/11/13 08:01:14;;;;;;;17.60;10.40;;;;;;;15.98;41.80;99596.31;107983;1254;72643;-67
2023/11/13 08:03:42;;;;;;;21.20;11.30;;;;;;;16.01;41.99;99595.93;108000;1259;61499;-67
2023/11/13 08:06:11;;;;;;;18.50;11.00;;;;;;;16.13;41.62;99593.85;108029;1256;60874;-67
2023/11/13 08:08:37;;;;;;;21.30;10.60;;;;;;;16.17;41.65;99595.58;108018;1254;73843;-67
2023/11/13 08:11:06;;;;;;;19.10;10.90;;;;;;;16.30;41.34;99593.58;108035;1254;70403;-67
2023/11/13 08:13:34;;;;;;;16.10;10.10;;;;;;;16.53;40.90;99592.33;107840;1254;72410;-67
2023/11/13 08:16:04;;;;;;;17.60;9.80;;;;;;;16.75;40.72;99598.61;107824;1254;59962;-67
2023/11/13 08:18:31;;;;;;;18.10;9.70;;;;;;;16.43;40.92;99598.34;107996;1254;60226;-67
2023/11/13 08:20:57;;;;;;;18.00;10.60;;;;;;;16.70;40.85;99598.77;108020;1254;72969;-67
2023/11/13 08:23:28;;;;;;;19.10;10.40;;;;;;;16.87;40.49;99597.60;108011;1254;70525;-67
2023/11/13 08:25:57;;;;;;;15.90;10.10;;;;;;;17.08;40.00;99600.16;107832;1257;72835;-68
2023/11/13 08:28:26;;;;;;;20.00;10.30;;;;;;;17.52;39.82;99599.77;108025;1254;61084;-67
2023/11/13 08:30:53;;;;;;;17.20;10.70;;;;;;;17.73;39.20;99595.16;107983;1254;60337;-68
2023/11/13 08:33:19;;;;;;;16.80;10.80;;;;;;;17.97;38.51;99593.56;108067;1254;73960;-68
2023/11/13 08:35:46;;;;;;;15.40;9.40;;;;;;;18.26;38.17;99592.61;108048;1254;70218;-68
2023/11/13 08:38:13;;;;;;;15.00;8.70;;;;;;;18.74;37.40;99591.39;108036;1259;72467;-68
2023/11/13 08:40:40;;;;;;;15.20;9.30;;;;;;;19.14;37.20;99583.69;108029;1259;61877;-68
2023/11/13 08:43:10;;;;;;;14.60;9.30;;;;;;;19.24;36.52;99582.55;108036;1254;60328;-67
2023/11/13 08:45:39;;;;;;;14.70;9.40;;;;;;;19.48;36.47;99581.98;108032;1254;73856;-68
2023/11/13 08:48:24;;;;;;;16.10;8.70;;;;;;;19.98;35.54;99585.14;108019;1259;70395;-68
2023/11/13 08:50:53;;;;;;;14.70;9.00;;;;;;;20.04;35.16;99586.97;108031;1254;72597;-67
2023/11/13 08:53:20;;;;;;;14.70;8.90;;;;;;;20.23;35.35;99586.96;108012;1257;60318;-69
2023/11/13 08:55:46;;;;;;;14.60;9.00;;;;;;;20.37;34.74;99584.16;107980;1254;60434;-67
2023/11/13 08:58:13;;;;;;;15.40;9.20;;;;;;;20.22;34.06;99588.10;108037;1254;73764;-68
2023/11/13 09:00:47;;;;;;;14.30;8.90;;;;;;;19.58;34.23;99585.27;107981;1254;70409;-68
2023/11/13 09:03:16;;;;;;;12.20;8.10;;;;;;;19.27;34.87;99586.40;107991;1254;72640;-68
2023/11/13 09:05:44;;;;;;;12.70;8.60;;;;;;;19.37;34.62;99591.91;107973;1254;61110;-68
2023/11/13 09:08:12;;;;;;;14.10;7.90;;;;;;;19.38;34.80;99590.27;108004;1254;60071;-68
2023/11/13 09:10:41;;;;;;;14.70;8.20;;;;;;;19.45;34.61;99591.83;107784;1254;73527;-69
2023/11/13 09:13:08;;;;;;;15.30;8.70;;;;;;;19.45;34.54;99582.02;108049;1254;69172;-68
2023/11/13 09:15:36;;;;;;;15.40;8.20;;;;;;;19.52;35.11;99580.73;108070;1254;72586;-68
2023/11/13 09:18:05;;;;;;;14.50;8.50;;;;;;;20.11;34.01;99570.86;107978;1254;60364;-69
2023/11/13 09:20:33;;;;;;;18.70;9.10;;;;;;;20.74;32.97;99571.25;107972;1254;61172;-68
2023/11/13 09:23:03;;;;;;;12.50;7.60;;;;;;;21.49;31.83;99569.39;107982;1254;73891;-68
2023/11/13 09:25:31;;;;;;;11.60;7.90;;;;;;;22.31;31.37;99563.90;108017;1254;70324;-68
2023/11/13 09:27:58;;;;;;;11.40;8.00;;;;;;;23.21;30.40;99567.06;107982;1254;73052;-67
2023/11/13 09:30:26;;;;;;;12.10;7.30;;;;;;;23.58;28.88;99575.61;108018;1254;60386;-68
2023/11/13 09:32:53;;;;;;;12.10;8.00;;;;;;;24.16;28.16;99569.73;107857;1257;60397;-69
2023/11/13 09:35:22;;;;;;;10.80;7.20;;;;;;;24.58;27.66;99571.38;108017;1254;73890;-68
2023/11/13 09:37:59;;;;;;;12.70;8.00;;;;;;;25.00;26.63;99570.89;107774;1262;70340;-68
2023/11/13 09:40:29;;;;;;;10.60;7.60;;;;;;;24.98;26.48;99572.66;108033;1254;71804;-68
2023/11/13 09:43:03;;;;;;;17.00;8.00;;;;;;;24.44;26.80;99576.39;107993;1254;60792;-68
2023/11/13 09:45:30;;;;;;;11.60;7.00;;;;;;;23.90;27.39;99577.98;107812;1260;59662;-68
2023/11/13 09:47:59;;;;;;;12.00;8.10;;;;;;;23.30;28.15;99582.17;107835;1254;73971;-69
2023/11/13 09:50:26;;;;;;;10.60;7.80;;;;;;;22.82;28.49;99584.96;107835;1254;70621;-68
2023/11/13 09:52:58;;;;;;;13.10;7.60;;;;;;;22.56;28.80;99577.44;107806;1254;71758;-68
2023/11/13 09:55:29;;;;;;;11.60;8.10;;;;;;;21.68;30.28;99579.23;108063;1254;60849;-68
2023/11/13 09:57:56;;;;;;;12.10;7.70;;;;;;;21.14;31.06;99579.83;107761;1254;60149;-67
2023/11/13 10:00:25;;;;;;;13.90;7.90;;;;;;;21.65;31.25;99584.34;107979;1254;73213;-68
2023/11/13 10:02:54;;;;;;;13.70;9.20;;;;;;;21.54;30.94;99583.60;107967;1254;68584;-68
2023/11/13 10:05:30;;;;;;;12.20;8.80;;;;;;;21.20;31.38;99580.71;107984;1254;72431;-67
2023/11/13 10:07:57;;;;;;;20.20;9.10;;;;;;;20.88;32.02;99573.28;107986;1254;60398;-68
2023/11/13 10:10:27;;;;;;;13.90;8.50;;;;;;;20.74;32.18;99576.67;107994;1254;61969;-68
2023/11/13 10:13:01;;;;;;;13.40;8.30;;;;;;;20.74;32.19;99567.56;108019;1254;72375;-67
2023/11/13 10:15:29;;;;;;;11.60;7.20;;;;;;;20.79;32.20;99566.73;107991;1254;69992;-67
2023/11/13 10:17:57;;;;;;;15.10;8.80;;;;;;;20.35;32.04;99574.30;108037;1254;72487;-69
2023/11/13 10:20:25;;;;;;;13.80;8.20;;;;;;;20.39;32.38;99573.28;107964;1254;60315;-69
2023/11/13 10:23:05;;;;;;;12.70;8.50;;;;;;;19.59;33.26;99580.17;107997;1257;60320;-69
2023/11/13 10:25:59;;;;;;;13.10;8.70;;;;;;;19.46;33.47;99584.42;107881;1253;75164;-68
2023/11/13 10:28:36;;;;;;;12.80;8.50;;;;;;;19.25;34.17;99585.79;108007;1253;70395;-68
2023/11/13 10:31:12;;;;;;;11.40;7.50;;;;;;;18.97;34.61;99584.70;108078;1253;70842;-68
2023/11/13 10:33:42;;;;;;;13.00;8.30;;;;;;;18.87;34.54;99579.31;108006;1253;60433;-68
2023/11/13 10:36:15;;;;;;;12.70;8.30;;;;;;;19.06;34.69;99585.94;108002;1253;60312;-68
2023/11/13 10:38:51;;;;;;;14.80;8.20;;;;;;;19.08;34.40;99589.52;108021;1253;73903;-68
2023/11/13 10:41:25;;;;;;;17.70;9.30;;;;;;;19.52;33.86;99590.77;107951;1253;70221;-68
2023/11/13 10:43:52;;;;;;;12.80;9.00;;;;;;;19.34;33.78;99591.67;108014;1253;73811;-68
2023/11/13 10:46:29;;;;;;;14.40;8.60;;;;;;;19.24;33.93;99591.20;108104;1254;60343;-68
2023/11/13 10:48:57;;;;;;;17.40;9.40;;;;;;;19.08;34.50;99594.27;108191;1253;59574;-67
2023/11/13 10:51:25;;;;;;;15.90;8.80;;;;;;;18.99;34.93;99590.05;108037;1253;73940;-67
2023/11/13 10:53:54;;;;;;;16.70;9.70;;;;;;;19.04;34.78;99588.42;108049;1253;70332;-67
2023/11/13 10:56:20;;;;;;;15.30;9.60;;;;;;;19.15;35.22;99583.41;108056;1253;72822;-67
2023/11/13 10:58:48;;;;;;;16.20;9.90;;;;;;;19.08;35.22;99585.27;108026;1253;60341;-67
2023/11/13 11:01:18;;;;;;;16.00;8.90;;;;;;;19.16;35.30;99578.92;108072;1253;60309;-66
2023/11/13 11:03:47;;;;;;;17.30;8.60;;;;;;;19.04;35.32;99581.67;107994;1257;74091;-68
2023/11/13 11:06:21;;;;;;;12.20;8.20;;;;;;;18.63;35.75;99584.92;108089;1253;69345;-67
2023/11/13 11:08:50;;;;;;;13.40;8.80;;;;;;;17.23;38.14;99591.25;108023;1253;72764;-67
2023/11/13 11:11:20;;;;;;;15.00;8.60;;;;;;;16.23;39.38;99591.08;108057;1253;61910;-66
2023/11/13 11:13:53;;;;;;;14.40;8.30;;;;;;;16.71;38.73;99590.73;107940;1260;60366;-68
2023/11/13 11:16:27;;;;;;;12.00;8.00;;;;;;;17.25;38.14;99593.59;107996;1255;74034;-67
2023/11/13 11:19:10;;;;;;;11.40;7.10;;;;;;;17.10;38.07;99590.59;108079;1253;70775;-68